FKS weather

Fukushima Airport
Sukagawa, Fukusima Prefecture, Japan

Public forecast

Using degrees Celsius for public forecast. Weather courtesy of forecast.io.

METAR (pilot weather report)

Retrieved 2019/05/23 02:00 UTC (1 hour ago):

RJSF 230200Z 01005KT 310V050 9999 FEW030 22/04 Q1010

TAF (pilot weather forecast)

Forecast is more than 12 hours old.

Retrieved 2019/05/22 00:30 UTC (1 day ago):

TAF RJSF 222305Z 2300/2406 34008KT 9999 FEW030 BECMG 2308/2310 13006KT BECMG 2318/2321 34012KT